Glendale Springs, NC

6:58 PM EDT on August 23, 2019 (GMT -0400)
Severt Road | | Change Station

Elev 2946 ft 36.32 °N, 81.40 °W | Updated 14 seconds ago

Mostly Cloudy
Mostly Cloudy
72.9 °F
Feels Like 73 °F
N
0
Wind Variable Wind from West
Gusts 0.0 mph

Today
High -- | Low -- °F
--% Chance of Precip.
Yesterday
High -- | Low -- °F
Precip. -- in
Pressure 30.12 in
Visibility 10.0 miles
Clouds Scattered Clouds 5000 ft
Mostly Cloudy 12000 ft
Heat Index 73 °F
Dew Point 67 °F
Humidity 81%
Rainfall 0.33 in
Snow Depth Not available.
6:49 AM 8:06 PM
Waning Gibbous, 47% visible
METAR KGEV 232255Z AUTO 30003KT 10SM SCT050 BKN120 23/19 A3012 RMK AO2 LTG DSNT SE T02270185
Pressure 30.12 in
Visibility 10.0 miles
Clouds Scattered Clouds 5000 ft
Mostly Cloudy 12000 ft
Heat Index 73 °F
Dew Point 67 °F
Humidity 81%
Rainfall 0.33 in
Snow Depth Not available.
6:49 AM 8:06 PM
Waning Gibbous, 47% visible
METAR KGEV 232255Z AUTO 30003KT 10SM SCT050 BKN120 23/19 A3012 RMK AO2 LTG DSNT SE T02270185

Get Severe Weather Alerts

Thanks for signing up!

Be on the lookout for a verification email in your inbox.

You'll start receiving the daily forecast at 6 AM.

×

10-Day Weather Forecast

Almanac

Astronomy

Aug. 23, 2019 Rise Set
Actual Time
Civil Twilight
Nautical Twilight
Astronomical Twilight
Moon
Length of Visible Light
Length of Day
Tomorrow will be .
, % of the Moon is Illuminated

Today's Extremes

State Highs State Lows

Community

WunderPhotos

Category 6

Welcome to Category 6. This is the collective home for Weather Underground's featured writeups by Dr. Jeff Masters (right), Bob Henson (left), Chris Burt, and other regular contributors.

Nearby

Air Quality

  Air Quality AQ Index Pollutant
Not available.

Snow Depth

Station Depth Elevation

Earthquake Activity

City Distance Mag. Time & Date
Minimum magnitude displayed is 2.5.

Coastal Water Temperatures

Place Temperature

Stations

Nearby Weather Stations

Station Location Temp. Windchill Dew Point Humidity Wind Precip. Elev Updated Type
                   

Watches & Warnings

There are currently no watches in effect.